createdAt,value
2022-10-13T00:00:06.173Z,976.35
2022-10-13T00:01:06.235Z,976.35
2022-10-13T00:02:06.133Z,976.36
2022-10-13T00:03:06.129Z,976.37
2022-10-13T00:04:06.379Z,976.36
2022-10-13T00:05:06.088Z,976.37
2022-10-13T00:06:06.068Z,976.39
2022-10-13T00:07:06.065Z,976.39
2022-10-13T00:08:06.040Z,976.34
2022-10-13T00:09:06.093Z,976.36
2022-10-13T00:10:06.228Z,976.39
2022-10-13T00:11:06.027Z,976.36
2022-10-13T00:12:05.998Z,976.36
2022-10-13T00:13:05.977Z,976.37
2022-10-13T00:14:06.799Z,976.33
2022-10-13T00:15:05.955Z,976.38
2022-10-13T00:16:06.244Z,976.39
2022-10-13T00:17:05.946Z,976.41
2022-10-13T00:18:05.913Z,976.38
2022-10-13T00:19:05.901Z,976.40
2022-10-13T00:20:05.883Z,976.35
2022-10-13T00:21:05.883Z,976.38
2022-10-13T00:22:06.057Z,976.39
2022-10-13T00:23:06.048Z,976.40
2022-10-13T00:24:05.833Z,976.39
2022-10-13T00:25:05.832Z,976.39
2022-10-13T00:26:05.813Z,976.39
2022-10-13T00:27:06.110Z,976.42
2022-10-13T00:28:05.798Z,976.42
2022-10-13T00:29:05.816Z,976.44
2022-10-13T00:30:17.942Z,976.45
2022-10-13T00:31:05.752Z,976.42
2022-10-13T00:32:05.774Z,976.41
2022-10-13T00:33:06.099Z,976.48
2022-10-13T00:34:05.711Z,976.44
2022-10-13T00:35:05.715Z,976.45
2022-10-13T00:36:05.685Z,976.48
2022-10-13T00:37:05.669Z,976.46
2022-10-13T00:38:05.651Z,976.45
2022-10-13T00:39:05.833Z,976.44
2022-10-13T00:40:05.628Z,976.43
2022-10-13T00:41:05.650Z,976.49
2022-10-13T00:42:05.608Z,976.48
2022-10-13T00:43:05.593Z,976.45
2022-10-13T00:44:05.756Z,976.49
2022-10-13T00:45:05.564Z,976.49
2022-10-13T00:46:05.553Z,976.47
2022-10-13T00:47:05.536Z,976.48
2022-10-13T00:48:05.523Z,976.49
2022-10-13T00:49:05.690Z,976.50
2022-10-13T00:50:05.493Z,976.52
2022-10-13T00:51:05.493Z,976.51
2022-10-13T00:52:05.474Z,976.54
2022-10-13T00:53:05.463Z,976.52
2022-10-13T00:54:05.631Z,976.53
2022-10-13T00:55:05.438Z,976.56
2022-10-13T00:56:05.420Z,976.57
2022-10-13T00:57:05.408Z,976.55
2022-10-13T00:58:05.725Z,976.50
2022-10-13T00:59:05.567Z,976.53
2022-10-13T01:00:05.368Z,976.54
2022-10-13T01:01:05.396Z,976.55
2022-10-13T01:02:05.340Z,976.50
2022-10-13T01:03:05.330Z,976.50
2022-10-13T01:04:05.638Z,976.46
2022-10-13T01:05:05.315Z,976.44
2022-10-13T01:06:05.296Z,976.44
2022-10-13T01:07:05.288Z,976.45
2022-10-13T01:08:05.264Z,976.45
2022-10-13T01:09:05.294Z,976.41
2022-10-13T01:10:05.415Z,976.38
2022-10-13T01:11:05.234Z,976.41
2022-10-13T01:12:05.215Z,976.41
2022-10-13T01:13:05.203Z,976.36
2022-10-13T01:14:05.191Z,976.36
2022-10-13T01:15:05.365Z,976.33
2022-10-13T01:16:05.165Z,976.34
2022-10-13T01:17:05.153Z,976.32
2022-10-13T01:18:05.133Z,976.28
2022-10-13T01:19:05.127Z,976.29
2022-10-13T01:20:05.319Z,976.31
2022-10-13T01:21:05.101Z,976.27
2022-10-13T01:22:05.084Z,976.21
2022-10-13T01:23:05.073Z,976.26
2022-10-13T01:24:05.059Z,976.24
2022-10-13T01:25:26.282Z,976.23
2022-10-13T01:26:05.035Z,976.23
2022-10-13T01:27:05.025Z,976.15
2022-10-13T01:28:05.014Z,976.19
2022-10-13T01:29:04.994Z,976.15
2022-10-13T01:30:05.224Z,976.17
2022-10-13T01:31:05.033Z,976.20
2022-10-13T01:32:04.956Z,976.18
2022-10-13T01:33:04.943Z,976.20
2022-10-13T01:34:04.932Z,976.17
2022-10-13T01:35:05.155Z,976.20
2022-10-13T01:36:04.905Z,976.23
2022-10-13T01:37:04.884Z,976.19
2022-10-13T01:38:04.880Z,976.24
2022-10-13T01:39:04.869Z,976.20
2022-10-13T01:40:04.916Z,976.21
2022-10-13T01:41:04.907Z,976.21
2022-10-13T01:42:04.830Z,976.23
2022-10-13T01:43:04.811Z,976.26
2022-10-13T01:44:04.807Z,976.27
2022-10-13T01:45:05.021Z,976.26
2022-10-13T01:46:04.784Z,976.25
2022-10-13T01:47:04.758Z,976.25
2022-10-13T01:48:04.768Z,976.21
2022-10-13T01:49:04.729Z,976.21
2022-10-13T01:50:04.966Z,976.20
2022-10-13T01:51:04.705Z,976.19
2022-10-13T01:52:04.697Z,976.16
2022-10-13T01:53:04.679Z,976.16
2022-10-13T01:54:04.675Z,976.14
2022-10-13T01:55:04.897Z,976.12
2022-10-13T01:56:04.644Z,976.11
2022-10-13T01:57:04.648Z,976.18
2022-10-13T01:58:04.622Z,976.16
2022-10-13T01:59:04.622Z,976.19
2022-10-13T02:00:04.832Z,976.17
2022-10-13T02:01:04.618Z,976.18
2022-10-13T02:02:04.569Z,976.22
2022-10-13T02:03:04.564Z,976.18
2022-10-13T02:04:04.542Z,976.19
2022-10-13T02:05:04.760Z,976.17
2022-10-13T02:06:04.511Z,976.16
2022-10-13T02:07:04.500Z,976.14
2022-10-13T02:08:04.491Z,976.10
2022-10-13T02:09:04.479Z,976.08
2022-10-13T02:10:04.699Z,976.07
2022-10-13T02:11:04.457Z,976.07
2022-10-13T02:12:04.438Z,976.04
2022-10-13T02:13:04.418Z,976.04
2022-10-13T02:14:04.408Z,976.06
2022-10-13T02:15:04.632Z,976.05
2022-10-13T02:16:04.393Z,976.05
2022-10-13T02:17:04.375Z,976.02
2022-10-13T02:18:04.365Z,976.06
2022-10-13T02:19:04.346Z,975.99
2022-10-13T02:20:04.575Z,976.05
2022-10-13T02:21:04.321Z,976.02
2022-10-13T02:22:04.315Z,976.03
2022-10-13T02:23:04.295Z,975.98
2022-10-13T02:24:04.290Z,976.03
2022-10-13T02:25:04.503Z,975.98
2022-10-13T02:26:04.263Z,976.02
2022-10-13T02:27:04.242Z,975.98
2022-10-13T02:28:04.232Z,976.01
2022-10-13T02:29:04.218Z,976.05
2022-10-13T02:30:04.208Z,976.04
2022-10-13T02:31:04.429Z,976.05
2022-10-13T02:32:04.185Z,976.04
2022-10-13T02:33:04.169Z,976.05
2022-10-13T02:34:04.157Z,976.05
2022-10-13T02:35:04.141Z,976.04
2022-10-13T02:36:04.369Z,976.05
2022-10-13T02:37:04.110Z,976.05
2022-10-13T02:38:04.099Z,976.04
2022-10-13T02:39:04.087Z,976.00
2022-10-13T02:40:04.082Z,976.02
2022-10-13T02:41:04.297Z,976.03
2022-10-13T02:42:04.048Z,975.99
2022-10-13T02:43:04.035Z,975.99
2022-10-13T02:44:04.033Z,975.99
2022-10-13T02:45:04.005Z,976.00
2022-10-13T02:46:04.238Z,975.99
2022-10-13T02:47:03.984Z,976.04
2022-10-13T02:48:03.990Z,975.98
2022-10-13T02:49:03.957Z,975.99
2022-10-13T02:50:03.950Z,975.99
2022-10-13T02:51:04.171Z,976.00
2022-10-13T02:52:03.924Z,975.97
2022-10-13T02:53:03.902Z,975.96
2022-10-13T02:54:03.901Z,975.97
2022-10-13T02:55:03.880Z,975.95
2022-10-13T02:56:04.100Z,975.96
2022-10-13T02:57:03.852Z,975.95
2022-10-13T02:58:03.849Z,975.97
2022-10-13T02:59:03.827Z,975.93
2022-10-13T03:00:03.821Z,975.97
2022-10-13T03:01:04.084Z,975.95
2022-10-13T03:02:03.797Z,975.97
2022-10-13T03:03:03.777Z,975.96
2022-10-13T03:04:03.766Z,975.92
2022-10-13T03:05:03.752Z,975.94
2022-10-13T03:06:03.975Z,975.98
2022-10-13T03:07:03.726Z,975.98
2022-10-13T03:08:03.716Z,975.99
2022-10-13T03:09:03.696Z,975.97
2022-10-13T03:10:03.691Z,975.99
2022-10-13T03:11:03.913Z,976.03
2022-10-13T03:12:03.668Z,976.01
2022-10-13T03:13:03.644Z,976.05
2022-10-13T03:14:03.640Z,975.98
2022-10-13T03:15:03.623Z,976.06
2022-10-13T03:16:03.843Z,976.05
2022-10-13T03:17:03.597Z,976.07
2022-10-13T03:18:03.586Z,976.06
2022-10-13T03:19:03.579Z,976.05
2022-10-13T03:20:03.570Z,976.10
2022-10-13T03:21:03.782Z,976.09
2022-10-13T03:22:03.538Z,976.10
2022-10-13T03:23:03.521Z,976.07
2022-10-13T03:24:03.520Z,976.08
2022-10-13T03:25:03.495Z,976.08
2022-10-13T03:26:03.718Z,976.05
2022-10-13T03:27:03.467Z,976.07
2022-10-13T03:28:03.456Z,976.04
2022-10-13T03:29:03.437Z,976.02
2022-10-13T03:30:03.432Z,976.04
2022-10-13T03:31:03.657Z,976.07
2022-10-13T03:32:03.408Z,976.06
2022-10-13T03:33:03.387Z,976.07
2022-10-13T03:34:03.382Z,976.04
2022-10-13T03:35:03.366Z,976.01
2022-10-13T03:36:03.585Z,976.06
2022-10-13T03:37:03.335Z,976.16
2022-10-13T03:38:03.324Z,976.09
2022-10-13T03:39:03.315Z,976.11
2022-10-13T03:40:03.305Z,976.07
2022-10-13T03:41:03.520Z,976.14
2022-10-13T03:42:03.272Z,976.09
2022-10-13T03:43:03.267Z,976.12
2022-10-13T03:44:03.249Z,976.12
2022-10-13T03:45:03.232Z,976.09
2022-10-13T03:46:03.462Z,976.06
2022-10-13T03:47:03.209Z,976.09
2022-10-13T03:48:03.215Z,976.09
2022-10-13T03:49:03.179Z,976.10
2022-10-13T03:50:03.167Z,976.03
2022-10-13T03:51:03.399Z,976.08
2022-10-13T03:52:03.146Z,976.06
2022-10-13T03:53:03.139Z,976.13
2022-10-13T03:54:03.118Z,976.09
2022-10-13T03:55:03.106Z,976.04
2022-10-13T03:56:03.336Z,976.09
2022-10-13T03:57:03.084Z,976.05
2022-10-13T03:58:03.071Z,976.06
2022-10-13T03:59:03.054Z,976.07
2022-10-13T04:00:03.035Z,976.04
2022-10-13T04:01:03.262Z,976.08
2022-10-13T04:02:03.071Z,976.07
2022-10-13T04:03:03.003Z,976.05
2022-10-13T04:04:02.991Z,976.03
2022-10-13T04:05:02.984Z,976.06
2022-10-13T04:06:03.192Z,976.05
2022-10-13T04:07:02.949Z,976.04
2022-10-13T04:08:02.932Z,976.04
2022-10-13T04:09:02.927Z,975.95
2022-10-13T04:10:02.909Z,975.94
2022-10-13T04:11:03.139Z,975.91
2022-10-13T04:12:02.895Z,975.94
2022-10-13T04:13:02.877Z,975.89
2022-10-13T04:14:02.875Z,975.90
2022-10-13T04:15:03.085Z,975.84
2022-10-13T04:16:02.837Z,975.83
2022-10-13T04:17:02.829Z,975.84
2022-10-13T04:18:02.808Z,975.84
2022-10-13T04:19:02.998Z,975.82
2022-10-13T04:20:03.018Z,975.85
2022-10-13T04:21:02.775Z,975.84
2022-10-13T04:22:02.758Z,975.87
2022-10-13T04:23:02.748Z,975.86
2022-10-13T04:24:02.733Z,975.89
2022-10-13T04:25:02.725Z,975.89
2022-10-13T04:26:02.945Z,975.91
2022-10-13T04:27:02.692Z,975.90
2022-10-13T04:28:02.681Z,975.86
2022-10-13T04:29:02.670Z,975.89
2022-10-13T04:30:02.660Z,975.91
2022-10-13T04:31:02.891Z,975.95
2022-10-13T04:32:02.627Z,975.97
2022-10-13T04:33:02.617Z,975.97
2022-10-13T04:34:02.603Z,975.98
2022-10-13T04:35:02.591Z,976.03
2022-10-13T04:36:02.818Z,976.03
2022-10-13T04:37:02.568Z,976.01
2022-10-13T04:38:02.559Z,976.01
2022-10-13T04:39:02.538Z,976.01
2022-10-13T04:40:02.758Z,976.01
2022-10-13T04:41:02.516Z,976.00
2022-10-13T04:42:02.499Z,975.97
2022-10-13T04:43:02.487Z,975.94
2022-10-13T04:44:02.510Z,975.92
2022-10-13T04:45:02.711Z,975.93
2022-10-13T04:46:02.452Z,975.90
2022-10-13T04:47:02.436Z,975.91
2022-10-13T04:48:02.421Z,975.91
2022-10-13T04:49:02.433Z,975.88
2022-10-13T04:50:02.633Z,975.86
2022-10-13T04:51:02.425Z,975.84
2022-10-13T04:52:02.371Z,975.78
2022-10-13T04:53:02.360Z,975.80
2022-10-13T04:54:02.359Z,975.82
2022-10-13T04:55:02.568Z,975.84
2022-10-13T04:56:02.313Z,975.79
2022-10-13T04:57:02.307Z,975.79
2022-10-13T04:58:02.289Z,975.77
2022-10-13T04:59:02.279Z,975.81
2022-10-13T05:00:02.307Z,975.76
2022-10-13T05:01:02.342Z,975.77
2022-10-13T05:02:02.239Z,975.76
2022-10-13T05:03:02.228Z,975.80
2022-10-13T05:04:02.208Z,975.80
2022-10-13T05:05:02.438Z,975.77
2022-10-13T05:06:02.185Z,975.79
2022-10-13T05:07:18.698Z,975.80
2022-10-13T05:08:03.157Z,975.79
2022-10-13T05:09:02.157Z,975.79
2022-10-13T05:10:02.385Z,975.80
2022-10-13T05:11:02.123Z,975.78
2022-10-13T05:12:02.106Z,975.78
2022-10-13T05:13:02.100Z,975.78
2022-10-13T05:14:02.083Z,975.83
2022-10-13T05:15:02.312Z,975.79
2022-10-13T05:16:02.006Z,975.81
2022-10-13T05:17:02.050Z,975.85
2022-10-13T05:18:02.034Z,975.85
2022-10-13T05:19:02.021Z,975.87
2022-10-13T05:20:02.199Z,975.86
2022-10-13T05:21:02.004Z,975.88
2022-10-13T05:22:01.984Z,975.90
2022-10-13T05:23:01.968Z,975.92
2022-10-13T05:24:01.961Z,975.88
2022-10-13T05:25:02.188Z,975.92
2022-10-13T05:26:01.889Z,975.84
2022-10-13T05:27:01.867Z,975.92
2022-10-13T05:28:01.855Z,975.87
2022-10-13T05:29:01.838Z,975.83
2022-10-13T05:30:01.868Z,975.86
2022-10-13T05:31:01.817Z,975.88
2022-10-13T05:32:01.796Z,975.82
2022-10-13T05:33:01.786Z,975.88
2022-10-13T05:34:01.777Z,975.88
2022-10-13T05:35:02.003Z,975.87
2022-10-13T05:36:01.746Z,975.84
2022-10-13T05:37:01.735Z,975.87
2022-10-13T05:38:01.722Z,975.88
2022-10-13T05:39:01.712Z,975.86
2022-10-13T05:40:01.940Z,975.85
2022-10-13T05:41:01.696Z,975.82
2022-10-13T05:42:01.674Z,975.81
2022-10-13T05:43:01.660Z,975.81
2022-10-13T05:44:01.646Z,975.80
2022-10-13T05:45:01.889Z,975.79
2022-10-13T05:46:01.619Z,975.79
2022-10-13T05:47:06.456Z,975.79
2022-10-13T05:48:02.589Z,975.79
2022-10-13T05:49:01.590Z,975.82
2022-10-13T05:50:01.807Z,975.76
2022-10-13T05:51:01.598Z,975.79
2022-10-13T05:52:01.552Z,975.81
2022-10-13T05:53:01.535Z,975.84
2022-10-13T05:54:01.513Z,975.83
2022-10-13T05:55:01.745Z,975.84
2022-10-13T05:56:01.535Z,975.82
2022-10-13T05:57:01.478Z,975.75
2022-10-13T05:58:01.474Z,975.83
2022-10-13T05:59:01.452Z,975.79
2022-10-13T06:00:01.675Z,975.80
2022-10-13T06:01:01.431Z,975.81
2022-10-13T06:02:01.467Z,975.76
2022-10-13T06:03:01.421Z,975.83
2022-10-13T06:04:01.436Z,975.78
2022-10-13T06:05:01.771Z,975.75
2022-10-13T06:06:01.353Z,975.74
2022-10-13T06:07:01.372Z,975.80
2022-10-13T06:08:01.329Z,975.76
2022-10-13T06:09:01.321Z,975.75
2022-10-13T06:10:01.549Z,975.81
2022-10-13T06:11:01.311Z,975.78
2022-10-13T06:12:01.290Z,975.82
2022-10-13T06:13:01.279Z,975.83
2022-10-13T06:14:01.258Z,975.84
2022-10-13T06:15:01.486Z,975.88
2022-10-13T06:16:01.228Z,975.89
2022-10-13T06:17:01.288Z,975.91
2022-10-13T06:18:01.231Z,975.92
2022-10-13T06:19:01.269Z,975.86
2022-10-13T06:20:01.466Z,975.93
2022-10-13T06:21:01.164Z,975.94
2022-10-13T06:22:03.657Z,975.92
2022-10-13T06:23:01.141Z,975.91
2022-10-13T06:24:01.124Z,975.89
2022-10-13T06:25:01.494Z,975.85
2022-10-13T06:26:01.102Z,975.85
2022-10-13T06:27:01.127Z,975.85
2022-10-13T06:28:01.073Z,975.84
2022-10-13T06:29:01.119Z,975.79
2022-10-13T06:30:01.293Z,975.77
2022-10-13T06:31:01.032Z,975.77
2022-10-13T06:32:01.029Z,975.80
2022-10-13T06:33:01.008Z,975.76
2022-10-13T06:34:01.008Z,975.79
2022-10-13T06:35:01.028Z,975.79
2022-10-13T06:36:00.970Z,975.78
2022-10-13T06:37:00.968Z,975.78
2022-10-13T06:38:00.958Z,975.78
2022-10-13T06:39:01.186Z,975.75
2022-10-13T06:40:00.940Z,975.81
2022-10-13T06:41:00.906Z,975.79
2022-10-13T06:42:00.947Z,975.78
2022-10-13T06:43:00.884Z,975.81
2022-10-13T06:44:01.114Z,975.74
2022-10-13T06:45:00.866Z,975.70
2022-10-13T06:46:00.843Z,975.67
2022-10-13T06:47:00.832Z,975.68
2022-10-13T06:48:00.815Z,975.65
2022-10-13T06:49:01.048Z,975.60
2022-10-13T06:50:00.792Z,975.64
2022-10-13T06:51:00.782Z,975.60
2022-10-13T06:52:00.764Z,975.63
2022-10-13T06:53:00.754Z,975.65
2022-10-13T06:54:00.985Z,975.65
2022-10-13T06:55:00.731Z,975.63
2022-10-13T06:56:00.720Z,975.66
2022-10-13T06:57:00.735Z,975.69
2022-10-13T06:58:00.700Z,975.72
2022-10-13T06:59:00.961Z,975.74
2022-10-13T07:00:00.658Z,975.71
2022-10-13T07:01:00.723Z,975.72
2022-10-13T07:02:00.690Z,975.70
2022-10-13T07:03:00.631Z,975.75
2022-10-13T07:04:00.877Z,975.70
2022-10-13T07:05:00.608Z,975.71
2022-10-13T07:06:00.586Z,975.76
2022-10-13T07:07:00.586Z,975.77
2022-10-13T07:08:00.565Z,975.72
2022-10-13T07:09:00.823Z,975.73
2022-10-13T07:10:00.536Z,975.73
2022-10-13T07:11:00.559Z,975.74
2022-10-13T07:12:00.513Z,975.78
2022-10-13T07:13:00.525Z,975.80
2022-10-13T07:15:00.484Z,975.80
2022-10-13T07:16:00.454Z,975.73
2022-10-13T07:17:00.445Z,975.78
2022-10-13T07:18:00.423Z,975.79
2022-10-13T07:19:00.653Z,975.79
2022-10-13T07:20:03.721Z,975.73
2022-10-13T07:21:01.391Z,975.73
2022-10-13T07:22:00.387Z,975.75
2022-10-13T07:23:00.493Z,975.78
2022-10-13T07:24:00.591Z,975.77
2022-10-13T07:25:00.374Z,975.76
2022-10-13T07:26:00.326Z,975.76
2022-10-13T07:27:05.244Z,975.77
2022-10-13T07:28:01.297Z,975.74
2022-10-13T07:29:01.194Z,975.75
2022-10-13T07:30:00.266Z,975.77
2022-10-13T07:31:00.288Z,975.77
2022-10-13T07:32:00.243Z,975.71
2022-10-13T07:33:00.235Z,975.76
2022-10-13T07:34:00.494Z,975.76
2022-10-13T07:35:00.233Z,975.77
2022-10-13T07:36:00.214Z,975.77
2022-10-13T07:37:00.220Z,975.76
2022-10-13T07:38:00.225Z,975.71
2022-10-13T07:39:00.450Z,975.71
2022-10-13T07:40:00.155Z,975.73
2022-10-13T07:41:00.160Z,975.69
2022-10-13T07:42:00.141Z,975.68
2022-10-13T07:43:00.190Z,975.67
2022-10-13T07:44:00.482Z,975.63
2022-10-13T07:45:00.156Z,975.65
2022-10-13T07:46:00.116Z,975.62
2022-10-13T07:47:00.103Z,975.59
2022-10-13T07:48:00.046Z,975.62
2022-10-13T07:49:00.388Z,975.62
2022-10-13T07:50:00.085Z,975.56
2022-10-13T07:51:00.156Z,975.57
2022-10-13T07:52:00.083Z,975.57
2022-10-13T07:52:59.989Z,975.57
2022-10-13T07:54:00.415Z,975.55
2022-10-13T07:54:59.989Z,975.53
2022-10-13T07:55:59.946Z,975.54
2022-10-13T07:56:59.965Z,975.50
2022-10-13T07:57:59.941Z,975.48
2022-10-13T07:59:00.265Z,975.51
2022-10-13T07:59:59.954Z,975.48
2022-10-13T08:00:59.895Z,975.47
2022-10-13T08:01:59.917Z,975.50
2022-10-13T08:02:59.911Z,975.52
2022-10-13T08:04:00.197Z,975.52
2022-10-13T08:04:59.852Z,975.50
2022-10-13T08:05:59.901Z,975.49
2022-10-13T08:06:59.827Z,975.44
2022-10-13T08:08:00.141Z,975.43
2022-10-13T08:08:59.803Z,975.44
2022-10-13T08:09:59.801Z,975.42
2022-10-13T08:10:59.761Z,975.42
2022-10-13T08:12:00.810Z,975.43
2022-10-13T08:12:59.737Z,975.43
2022-10-13T08:14:00.044Z,975.39
2022-10-13T08:15:01.999Z,975.35
2022-10-13T08:16:00.723Z,975.35
2022-10-13T08:16:59.729Z,975.33
2022-10-13T08:17:59.706Z,975.39
2022-10-13T08:18:59.948Z,975.39
2022-10-13T08:19:59.657Z,975.34
2022-10-13T08:21:23.849Z,975.43
2022-10-13T08:22:00.783Z,975.40
2022-10-13T08:22:59.635Z,975.40
2022-10-13T08:23:59.853Z,975.38
2022-10-13T08:24:59.623Z,975.40
2022-10-13T08:25:59.606Z,975.42
2022-10-13T08:26:59.594Z,975.39
2022-10-13T08:28:00.555Z,975.34
2022-10-13T08:30:00.554Z,975.24
2022-10-13T08:30:59.838Z,975.29
2022-10-13T08:31:59.565Z,975.28
2022-10-13T08:32:59.490Z,975.27
2022-10-13T08:33:59.810Z,975.25
2022-10-13T08:34:59.503Z,975.24
2022-10-13T08:35:59.478Z,975.26
2022-10-13T08:36:59.508Z,975.23
2022-10-13T08:37:59.430Z,975.24
2022-10-13T08:38:59.640Z,975.22
2022-10-13T08:39:59.377Z,975.25
2022-10-13T08:40:59.349Z,975.27
2022-10-13T08:41:59.382Z,975.26
2022-10-13T08:43:00.508Z,975.25
2022-10-13T08:44:39.668Z,975.28
2022-10-13T08:45:28.373Z,975.26
2022-10-13T08:46:00.292Z,975.28
2022-10-13T08:46:59.285Z,975.34
2022-10-13T08:47:59.276Z,975.35
2022-10-13T08:48:59.496Z,975.32
2022-10-13T08:50:00.703Z,975.37
2022-10-13T08:50:59.244Z,975.40
2022-10-13T08:51:59.231Z,975.42
2022-10-13T08:52:59.243Z,975.40
2022-10-13T08:53:59.430Z,975.39
2022-10-13T08:54:59.234Z,975.39
2022-10-13T08:55:59.235Z,975.36
2022-10-13T08:57:59.141Z,975.38
2022-10-13T08:58:59.369Z,975.31
2022-10-13T08:59:59.120Z,975.32
2022-10-13T09:00:59.091Z,975.32
2022-10-13T09:01:59.146Z,975.31
2022-10-13T09:02:59.078Z,975.36
2022-10-13T09:03:59.299Z,975.31
2022-10-13T09:04:59.047Z,975.34
2022-10-13T09:05:59.065Z,975.34
2022-10-13T09:06:59.026Z,975.34
2022-10-13T09:07:59.261Z,975.32
2022-10-13T09:08:59.075Z,975.29
2022-10-13T09:09:59.015Z,975.33
2022-10-13T09:10:58.986Z,975.33
2022-10-13T09:11:58.957Z,975.29
2022-10-13T09:12:59.178Z,975.27
2022-10-13T09:13:59.188Z,975.26
2022-10-13T09:14:58.990Z,975.23
2022-10-13T09:15:58.914Z,975.27
2022-10-13T09:16:58.992Z,975.29
2022-10-13T09:17:59.356Z,975.25
2022-10-13T09:18:58.860Z,975.22
2022-10-13T09:19:58.862Z,975.23
2022-10-13T09:20:58.889Z,975.21
2022-10-13T09:21:58.865Z,975.20
2022-10-13T09:22:59.109Z,975.20
2022-10-13T09:24:54.647Z,975.21
2022-10-13T09:25:54.623Z,975.21
2022-10-13T09:26:54.608Z,975.24
2022-10-13T09:27:54.603Z,975.20
2022-10-13T09:28:54.934Z,975.21
2022-10-13T09:29:54.572Z,975.24
2022-10-13T09:30:54.561Z,975.21
2022-10-13T09:31:54.557Z,975.21
2022-10-13T09:32:54.544Z,975.23
2022-10-13T09:33:54.762Z,975.23
2022-10-13T09:34:54.503Z,975.25
2022-10-13T09:35:54.490Z,975.22
2022-10-13T09:36:54.520Z,975.26
2022-10-13T09:37:54.494Z,975.28
2022-10-13T09:38:54.822Z,975.24
2022-10-13T09:39:54.500Z,975.19
2022-10-13T09:40:54.498Z,975.23
2022-10-13T09:41:54.533Z,975.22
2022-10-13T09:42:54.790Z,975.21
2022-10-13T09:43:54.450Z,975.21
2022-10-13T09:44:54.441Z,975.19
2022-10-13T09:45:54.463Z,975.15
2022-10-13T09:46:54.414Z,975.18
2022-10-13T09:47:54.756Z,975.14
2022-10-13T09:48:54.410Z,975.13
2022-10-13T09:49:54.412Z,975.15
2022-10-13T09:50:54.399Z,975.12
2022-10-13T09:51:54.355Z,975.16
2022-10-13T09:52:54.386Z,975.18
2022-10-13T09:53:54.716Z,975.18
2022-10-13T09:54:54.327Z,975.20
2022-10-13T09:55:54.255Z,975.25
2022-10-13T09:56:54.264Z,975.22
2022-10-13T09:57:54.240Z,975.27
2022-10-13T09:58:54.451Z,975.23
2022-10-13T09:59:54.233Z,975.24
2022-10-13T10:00:54.188Z,975.21
2022-10-13T10:01:54.180Z,975.23
2022-10-13T10:02:54.381Z,975.26
2022-10-13T10:03:54.230Z,975.28
2022-10-13T10:04:54.120Z,975.26
2022-10-13T10:05:54.109Z,975.23
2022-10-13T10:06:54.105Z,975.25
2022-10-13T10:07:54.317Z,975.22
2022-10-13T10:09:09.150Z,975.25
2022-10-13T10:09:55.056Z,975.21
2022-10-13T10:10:54.045Z,975.27
2022-10-13T10:11:54.028Z,975.27
2022-10-13T10:12:54.295Z,975.26
2022-10-13T10:13:54.013Z,975.28
2022-10-13T10:14:53.992Z,975.29
2022-10-13T10:15:53.983Z,975.23
2022-10-13T10:16:53.967Z,975.24
2022-10-13T10:17:54.204Z,975.24
2022-10-13T10:18:58.596Z,975.20
2022-10-13T10:19:54.966Z,975.27
2022-10-13T10:20:53.912Z,975.30
2022-10-13T10:21:53.933Z,975.30
2022-10-13T10:22:54.290Z,975.28
2022-10-13T10:23:53.884Z,975.38
2022-10-13T10:24:53.894Z,975.42
2022-10-13T10:25:53.851Z,975.41
2022-10-13T10:26:53.831Z,975.39
2022-10-13T10:27:54.061Z,975.34
2022-10-13T10:28:53.857Z,975.34
2022-10-13T10:29:53.802Z,975.34
2022-10-13T10:30:53.786Z,975.31
2022-10-13T10:31:53.772Z,975.28
2022-10-13T10:32:54.099Z,975.24
2022-10-13T10:33:53.741Z,975.18
2022-10-13T10:34:53.739Z,975.22
2022-10-13T10:35:53.727Z,975.18
2022-10-13T10:36:53.958Z,975.16
2022-10-13T10:37:53.697Z,975.13
2022-10-13T10:38:53.698Z,975.12
2022-10-13T10:39:53.668Z,975.09
2022-10-13T10:40:53.655Z,975.06
2022-10-13T10:41:53.874Z,975.04
2022-10-13T10:42:53.634Z,975.02
2022-10-13T10:43:53.623Z,975.05
2022-10-13T10:44:53.602Z,975.00
2022-10-13T10:45:53.593Z,974.97
2022-10-13T10:46:53.573Z,974.99
2022-10-13T10:47:53.840Z,974.96
2022-10-13T10:48:53.551Z,974.95
2022-10-13T10:49:53.534Z,974.92
2022-10-13T10:50:53.522Z,974.87
2022-10-13T10:51:53.516Z,974.82
2022-10-13T10:52:53.749Z,974.84
2022-10-13T10:53:53.491Z,974.88
2022-10-13T10:54:53.480Z,974.90
2022-10-13T10:55:53.459Z,974.93
2022-10-13T10:56:53.688Z,974.98
2022-10-13T10:57:53.430Z,974.98
2022-10-13T10:58:53.438Z,974.96
2022-10-13T10:59:53.419Z,974.93
2022-10-13T11:00:53.436Z,974.85
2022-10-13T11:01:53.671Z,974.81
2022-10-13T11:02:53.380Z,974.86
2022-10-13T11:03:53.356Z,974.81
2022-10-13T11:04:53.345Z,974.90
2022-10-13T11:05:53.336Z,974.86
2022-10-13T11:06:53.547Z,974.86
2022-10-13T11:07:53.314Z,974.85
2022-10-13T11:08:53.291Z,974.85
2022-10-13T11:09:53.285Z,974.89
2022-10-13T11:10:53.264Z,974.85
2022-10-13T11:11:53.254Z,974.87
2022-10-13T11:12:53.487Z,974.89
2022-10-13T11:13:53.223Z,974.84
2022-10-13T11:14:53.212Z,974.78
2022-10-13T11:15:53.191Z,974.75
2022-10-13T11:16:53.450Z,974.67
2022-10-13T11:17:53.163Z,974.72
2022-10-13T11:18:53.161Z,974.67
2022-10-13T11:19:53.146Z,974.65
2022-10-13T11:20:53.139Z,974.62
2022-10-13T11:21:53.121Z,974.62
2022-10-13T11:22:53.341Z,974.56
2022-10-13T11:23:53.107Z,974.54
2022-10-13T11:24:53.110Z,974.49
2022-10-13T11:25:53.067Z,974.55
2022-10-13T11:26:53.077Z,974.52
2022-10-13T11:27:53.277Z,974.57
2022-10-13T11:28:53.086Z,974.56
2022-10-13T11:29:53.007Z,974.54
2022-10-13T11:30:52.999Z,974.51
2022-10-13T11:31:52.985Z,974.56
2022-10-13T11:32:53.206Z,974.53
2022-10-13T11:33:52.962Z,974.55
2022-10-13T11:34:52.946Z,974.58
2022-10-13T11:35:52.925Z,974.55
2022-10-13T11:36:52.923Z,974.53
2022-10-13T11:38:05.960Z,974.58
2022-10-13T11:38:53.898Z,974.56
2022-10-13T11:39:52.874Z,974.52
2022-10-13T11:40:52.864Z,974.55
2022-10-13T11:41:53.067Z,974.55
2022-10-13T11:42:55.625Z,974.56
2022-10-13T11:43:53.822Z,974.56
2022-10-13T11:44:52.843Z,974.54
2022-10-13T11:45:52.792Z,974.47
2022-10-13T11:46:52.788Z,974.46
2022-10-13T11:47:53.022Z,974.42
2022-10-13T11:48:52.767Z,974.44
2022-10-13T11:49:52.765Z,974.45
2022-10-13T11:50:52.740Z,974.45
2022-10-13T11:51:52.719Z,974.41
2022-10-13T11:52:52.949Z,974.46
2022-10-13T11:53:52.688Z,974.45
2022-10-13T11:54:52.679Z,974.43
2022-10-13T11:55:52.668Z,974.45
2022-10-13T11:56:52.656Z,974.41
2022-10-13T11:57:52.876Z,974.45
2022-10-13T11:58:52.626Z,974.39
2022-10-13T11:59:52.684Z,974.37
2022-10-13T12:00:52.659Z,974.32
2022-10-13T12:01:52.635Z,974.30
2022-10-13T12:02:53.002Z,974.33
2022-10-13T12:03:52.583Z,974.26
2022-10-13T12:04:52.596Z,974.29
2022-10-13T12:05:52.590Z,974.24
2022-10-13T12:06:52.568Z,974.23
2022-10-13T12:07:52.874Z,974.16
2022-10-13T12:08:52.535Z,974.14
2022-10-13T12:09:52.545Z,974.14
2022-10-13T12:10:52.534Z,974.13
2022-10-13T12:11:52.510Z,974.12
2022-10-13T12:12:52.817Z,974.12
2022-10-13T12:13:52.477Z,974.10
2022-10-13T12:14:52.472Z,974.11
2022-10-13T12:15:52.481Z,974.05
2022-10-13T12:16:52.529Z,974.09
2022-10-13T12:17:52.693Z,974.08
2022-10-13T12:18:52.430Z,974.04
2022-10-13T12:19:52.390Z,974.02
2022-10-13T12:20:52.391Z,974.04
2022-10-13T12:21:52.412Z,974.01
2022-10-13T12:22:52.701Z,973.99
2022-10-13T12:23:52.346Z,973.98
2022-10-13T12:24:52.380Z,973.94
2022-10-13T12:25:52.312Z,973.91
2022-10-13T12:26:52.299Z,973.92
2022-10-13T12:27:52.587Z,973.86
2022-10-13T12:28:52.377Z,973.85
2022-10-13T12:29:52.267Z,973.82
2022-10-13T12:30:52.273Z,973.78
2022-10-13T12:31:52.250Z,973.82